createdAt,value
2022-11-09T00:04:22.400Z,60.64
2022-11-09T00:14:49.853Z,60.48
2022-11-09T00:25:17.755Z,60.52
2022-11-09T00:35:45.092Z,60.77
2022-11-09T00:46:12.893Z,60.59
2022-11-09T00:56:40.645Z,60.63
2022-11-09T01:07:09.601Z,60.50
2022-11-09T01:17:37.042Z,60.53
2022-11-09T01:28:04.431Z,60.69
2022-11-09T01:38:32.120Z,60.86
2022-11-09T01:49:04.833Z,60.68
2022-11-09T01:59:35.185Z,60.50
2022-11-09T02:10:09.162Z,60.36
2022-11-09T02:20:47.742Z,60.33
2022-11-09T02:31:18.132Z,60.49
2022-11-09T02:41:49.481Z,60.76
2022-11-09T02:52:16.875Z,60.49
2022-11-09T03:02:44.374Z,60.49
2022-11-09T03:13:11.693Z,60.54
2022-11-09T03:23:38.917Z,60.89
2022-11-09T03:34:06.142Z,60.70
2022-11-09T03:44:33.404Z,60.85
2022-11-09T03:55:00.666Z,60.74
2022-11-09T04:05:28.794Z,60.84
2022-11-09T04:15:56.053Z,60.60
2022-11-09T04:26:23.303Z,61.23
2022-11-09T04:36:50.699Z,61.54
2022-11-09T04:47:17.977Z,61.68
2022-11-09T04:57:45.290Z,61.84
2022-11-09T05:08:12.679Z,61.89
2022-11-09T05:18:40.040Z,61.90
2022-11-09T05:29:09.848Z,63.39
2022-11-09T05:39:37.171Z,65.83
2022-11-09T05:50:04.778Z,67.63
2022-11-09T06:00:32.326Z,69.26
2022-11-09T06:11:05.822Z,68.98
2022-11-09T06:21:33.079Z,68.39
2022-11-09T06:32:00.683Z,66.76
2022-11-09T06:42:28.001Z,66.63
2022-11-09T06:52:59.027Z,66.62
2022-11-09T07:03:26.740Z,65.97
2022-11-09T07:13:57.417Z,66.64
2022-11-09T07:24:25.460Z,67.89
2022-11-09T07:35:05.988Z,72.18
2022-11-09T07:45:58.886Z,73.53
2022-11-09T07:56:50.855Z,72.49
2022-11-09T08:07:42.939Z,72.84
2022-11-09T08:18:42.902Z,73.01
2022-11-09T08:29:48.912Z,73.08
2022-11-09T08:40:42.831Z,72.97
2022-11-09T08:51:34.959Z,72.72
2022-11-09T09:02:27.942Z,72.04
2022-11-09T09:13:20.915Z,71.54
2022-11-09T09:24:12.868Z,71.45
2022-11-09T09:35:04.808Z,71.07
2022-11-09T09:46:00.827Z,70.71
2022-11-09T09:56:58.833Z,70.35
2022-11-09T10:07:55.842Z,70.01
2022-11-09T10:19:17.753Z,69.47
2022-11-09T10:30:09.808Z,68.81
2022-11-09T10:41:07.817Z,69.44
2022-11-09T10:51:59.795Z,68.02
2022-11-09T11:03:00.736Z,67.51
2022-11-09T11:13:54.735Z,66.66
2022-11-09T11:24:57.759Z,66.43
2022-11-09T11:35:57.750Z,66.35
2022-11-09T11:47:00.830Z,66.02
2022-11-09T11:58:05.800Z,65.89
2022-11-09T12:09:19.693Z,65.69
2022-11-09T12:20:27.749Z,65.68
2022-11-09T12:31:30.737Z,65.89
2022-11-09T12:42:28.680Z,65.77
2022-11-09T12:53:23.199Z,65.85
2022-11-09T13:04:15.751Z,65.70
2022-11-09T13:15:07.728Z,65.56
2022-11-09T13:26:00.655Z,65.62
2022-11-09T13:36:52.789Z,65.78
2022-11-09T13:47:46.703Z,65.63
2022-11-09T13:58:44.650Z,65.51
2022-11-09T14:09:23.140Z,65.54
2022-11-09T14:20:00.247Z,65.53
2022-11-09T14:30:29.587Z,65.65
2022-11-09T14:40:57.531Z,65.65
2022-11-09T14:51:31.677Z,65.76
2022-11-09T15:02:08.814Z,65.83
2022-11-09T15:12:41.234Z,65.73
2022-11-09T15:23:39.096Z,65.98
2022-11-09T15:34:22.422Z,66.17
2022-11-09T15:44:54.336Z,66.49
2022-11-09T15:55:23.404Z,66.31
2022-11-09T16:05:50.684Z,66.40
2022-11-09T16:16:18.242Z,66.31
2022-11-09T16:26:45.903Z,65.97
2022-11-09T16:37:13.547Z,66.26
2022-11-09T16:47:45.431Z,66.67
2022-11-09T16:58:12.792Z,66.37
2022-11-09T17:08:40.779Z,66.85
2022-11-09T17:19:08.179Z,67.07
2022-11-09T17:29:37.487Z,67.02
2022-11-09T17:40:05.189Z,67.51
2022-11-09T17:50:32.593Z,67.83
2022-11-09T18:01:07.684Z,68.42
2022-11-09T18:11:35.623Z,69.23
2022-11-09T18:22:04.295Z,69.83
2022-11-09T18:32:34.079Z,70.49
2022-11-09T18:43:01.393Z,71.07
2022-11-09T18:53:30.705Z,71.34
2022-11-09T19:04:00.556Z,71.46
2022-11-09T19:14:28.697Z,71.79
2022-11-09T19:24:56.038Z,72.01
2022-11-09T19:35:26.353Z,72.21
2022-11-09T19:45:55.932Z,72.34
2022-11-09T19:56:25.094Z,72.35
2022-11-09T20:06:52.527Z,72.45
2022-11-09T20:17:19.884Z,72.63
2022-11-09T20:27:47.207Z,72.81
2022-11-09T20:38:14.527Z,72.84
2022-11-09T20:48:57.641Z,72.68
2022-11-09T20:59:25.245Z,72.81
2022-11-09T21:09:52.592Z,72.63
2022-11-09T21:20:20.329Z,72.73
2022-11-09T21:30:47.667Z,72.73
2022-11-09T21:41:32.543Z,72.69
2022-11-09T21:52:00.404Z,72.78
2022-11-09T22:02:27.720Z,72.84
2022-11-09T22:13:12.807Z,72.79
2022-11-09T22:23:40.312Z,72.78
2022-11-09T22:34:07.611Z,72.69
2022-11-09T22:44:34.936Z,72.39
2022-11-09T22:55:02.226Z,72.29
2022-11-09T23:05:29.405Z,72.22
2022-11-09T23:16:01.356Z,72.35
2022-11-09T23:26:29.380Z,71.76
2022-11-09T23:36:56.644Z,71.95
2022-11-09T23:47:24.150Z,72.23
2022-11-09T23:57:51.700Z,72.18
